Time;durP1;ratioP1;P1;durP2;ratioP2;P2;SDS_P1;SDS_P2;PMS_P1;PMS_P2;Temp;Humidity;BMP_temperature;BMP_pressure;BME280_temperature;BME280_humidity;BME280_pressure;Samples;Min_cycle;Max_cycle;Signal;HPM_P1;HPM_P2
2022/05/15 00:02:07;;;;;;;1.85;0.65;;;17.20;49.30;19.20;94087.00;;;;10400443;28;45988;-61
2022/05/15 00:07:28;;;;;;;1.17;0.80;;;17.20;49.20;19.20;94075.00;;;;10440344;22;45667;-59
2022/05/15 00:12:50;;;;;;;1.77;0.80;;;17.20;49.20;19.20;94079.00;;;;10400165;28;45724;-59
2022/05/15 00:18:11;;;;;;;1.15;0.75;;;17.20;49.30;19.20;94073.00;;;;10399726;28;45250;-60
2022/05/15 00:23:32;;;;;;;1.33;0.70;;;17.20;49.30;19.20;94064.00;;;;10399914;28;45843;-61
2022/05/15 00:28:54;;;;;;;0.80;0.80;;;17.20;49.20;19.20;94067.00;;;;10399172;28;45879;-62
2022/05/15 00:34:14;;;;;;;1.02;0.70;;;17.10;49.20;19.20;94062.00;;;;10398620;28;45836;-62
2022/05/15 00:39:35;;;;;;;2.03;0.90;;;17.10;49.20;19.20;94067.00;;;;10398398;28;45245;-61
2022/05/15 00:44:57;;;;;;;1.10;0.90;;;17.10;49.20;19.20;94062.00;;;;10399083;28;45763;-62
2022/05/15 00:50:23;;;;;;;1.40;0.88;;;17.20;49.30;19.20;94069.00;;;;10398063;28;45109;-62
2022/05/15 00:55:48;;;;;;;1.60;0.80;;;17.10;49.10;19.20;94053.00;;;;10397713;28;45297;-62
2022/05/15 01:01:10;;;;;;;1.88;0.70;;;17.10;49.20;19.10;94060.00;;;;10394009;28;45258;-63
2022/05/15 01:06:31;;;;;;;0.95;0.70;;;17.10;49.10;19.10;94059.00;;;;10394960;28;45341;-63
2022/05/15 01:11:51;;;;;;;0.93;0.60;;;17.10;49.10;19.10;94051.00;;;;10397625;28;45191;-62
2022/05/15 01:17:14;;;;;;;1.50;0.70;;;17.10;49.10;19.10;94063.00;;;;10397175;28;45189;-61
2022/05/15 01:22:36;;;;;;;0.70;0.68;;;17.10;49.10;19.10;94054.00;;;;10397673;28;45755;-61
2022/05/15 01:28:03;;;;;;;0.90;0.65;;;17.10;49.20;19.10;94051.00;;;;10396995;28;45167;-62
2022/05/15 01:33:24;;;;;;;1.70;0.90;;;17.10;49.10;19.10;94053.00;;;;10397025;28;45160;-63
2022/05/15 01:38:47;;;;;;;1.00;0.80;;;17.10;49.10;19.10;94037.00;;;;10396195;28;45776;-61
2022/05/15 01:44:07;;;;;;;1.33;0.88;;;17.10;49.00;19.10;94053.00;;;;10396227;28;45408;-62
2022/05/15 01:49:28;;;;;;;2.15;0.90;;;17.10;49.00;19.10;94041.00;;;;10395931;28;45122;-64
2022/05/15 01:54:50;;;;;;;1.10;0.90;;;17.10;49.00;19.10;94039.00;;;;10396449;28;45277;-61
2022/05/15 02:00:20;;;;;;;1.00;0.70;;;17.10;49.00;19.10;94054.00;;;;10395426;28;45778;-62
2022/05/15 02:05:40;;;;;;;1.20;0.80;;;17.00;49.00;19.10;94060.00;;;;10395859;28;45104;-62
2022/05/15 02:11:03;;;;;;;1.75;0.80;;;17.00;49.00;19.10;94057.00;;;;10394992;28;45285;-61
2022/05/15 02:16:24;;;;;;;1.27;0.88;;;17.00;48.90;19.10;94053.00;;;;10395388;28;45283;-62
2022/05/15 02:21:45;;;;;;;0.80;0.60;;;17.00;48.90;19.10;94053.00;;;;10396307;28;45401;-61
2022/05/15 02:27:08;;;;;;;1.20;0.80;;;17.00;48.90;19.10;94034.00;;;;10394787;28;45269;-62
2022/05/15 02:32:29;;;;;;;1.67;0.85;;;17.00;48.90;19.00;94034.00;;;;10395196;28;45189;-62
2022/05/15 02:37:50;;;;;;;1.33;0.70;;;17.00;48.80;19.00;94046.00;;;;10394989;28;45172;-62
2022/05/15 02:43:12;;;;;;;1.00;0.80;;;17.00;48.80;19.00;94038.00;;;;10394747;28;45280;-61
2022/05/15 02:54:11;;;;;;;0.90;0.60;;;17.00;48.80;19.00;94027.00;;;;10394673;28;45227;-61
2022/05/15 02:59:33;;;;;;;1.70;0.68;;;17.00;48.80;19.00;94045.00;;;;10393864;28;45197;-63
2022/05/15 03:04:54;;;;;;;0.90;0.68;;;17.00;48.80;19.00;94047.00;;;;10394898;28;45220;-62
2022/05/15 03:10:19;;;;;;;1.35;0.80;;;17.00;48.80;19.00;94050.00;;;;10392836;28;47353;-63
2022/05/15 03:15:41;;;;;;;2.03;0.90;;;17.00;48.90;19.00;94046.00;;;;10393836;28;45264;-61
2022/05/15 03:21:02;;;;;;;1.77;1.02;;;17.00;48.70;19.00;94054.00;;;;10394521;28;45281;-61
2022/05/15 03:26:23;;;;;;;1.50;0.80;;;17.00;48.80;19.00;94047.00;;;;10393659;28;45285;-62
2022/05/15 03:31:46;;;;;;;2.33;0.93;;;16.90;48.60;19.00;94034.00;;;;10393773;28;45183;-61
2022/05/15 03:37:06;;;;;;;1.52;0.57;;;16.90;48.60;19.00;94046.00;;;;10393048;28;45863;-61
2022/05/15 03:42:27;;;;;;;1.13;0.70;;;16.90;48.60;19.00;94051.00;;;;10394616;28;45914;-62
2022/05/15 03:47:51;;;;;;;1.00;0.80;;;16.90;48.60;19.00;94048.00;;;;10392804;28;45329;-63
2022/05/15 03:53:12;;;;;;;0.98;0.75;;;16.90;48.60;19.00;94057.00;;;;10393193;28;45265;-62
2022/05/15 03:58:36;;;;;;;1.60;0.75;;;17.00;48.60;19.00;94048.00;;;;10392800;28;45223;-61
2022/05/15 04:03:59;;;;;;;1.63;0.80;;;16.90;48.60;19.00;94053.00;;;;10393155;28;45241;-62
2022/05/15 04:09:20;;;;;;;0.90;0.63;;;16.90;48.60;19.00;94051.00;;;;10394801;28;45206;-62
2022/05/15 04:14:40;;;;;;;1.33;0.70;;;17.00;48.60;19.10;94056.00;;;;10399534;28;45251;-62
2022/05/15 04:20:05;;;;;;;1.20;0.60;;;17.10;48.40;19.20;94053.00;;;;10398940;28;45111;-62
2022/05/15 04:25:26;;;;;;;0.80;0.70;;;17.20;48.20;19.30;94055.00;;;;10399028;28;45287;-61
2022/05/15 04:30:46;;;;;;;1.77;0.80;;;17.20;48.10;19.30;94055.00;;;;10398757;28;45859;-61
2022/05/15 04:36:08;;;;;;;0.90;0.50;;;17.20;48.00;19.30;94047.00;;;;10398706;28;45248;-62
2022/05/15 04:41:29;;;;;;;1.48;0.73;;;17.30;48.00;19.30;94061.00;;;;10398775;28;45797;-61
2022/05/15 04:46:49;;;;;;;1.10;0.90;;;17.30;48.00;19.30;94055.00;;;;10398311;28;45116;-62
2022/05/15 04:52:11;;;;;;;1.73;0.75;;;17.30;47.90;19.40;94072.00;;;;10398252;28;45764;-61
2022/05/15 04:57:32;;;;;;;0.73;0.50;;;17.30;47.90;19.40;94070.00;;;;10398555;28;45315;-63
2022/05/15 05:02:52;;;;;;;0.90;0.70;;;17.30;47.90;19.40;94062.00;;;;10398252;28;45132;-62
2022/05/15 05:08:14;;;;;;;1.88;0.80;;;17.30;47.90;19.40;94078.00;;;;10397651;28;45764;-61
2022/05/15 05:13:35;;;;;;;0.88;0.70;;;17.40;47.90;19.40;94069.00;;;;10397567;28;45173;-62
2022/05/15 05:18:55;;;;;;;0.90;0.70;;;17.40;47.90;19.50;94071.00;;;;10396826;28;45841;-62
2022/05/15 05:24:17;;;;;;;1.33;0.80;;;17.40;47.90;19.50;94075.00;;;;10397335;28;45140;-62
2022/05/15 05:29:37;;;;;;;0.95;0.70;;;17.40;47.90;19.50;94075.00;;;;10397077;28;45220;-62
2022/05/15 05:34:58;;;;;;;0.80;0.70;;;17.50;47.90;19.50;94072.00;;;;10396945;28;45221;-63
2022/05/15 05:40:22;;;;;;;1.25;0.80;;;17.50;47.90;19.50;94063.00;;;;10396347;28;45781;-62
2022/05/15 05:45:42;;;;;;;1.35;0.70;;;17.50;47.90;19.50;94078.00;;;;10394991;28;45206;-62
2022/05/15 05:51:03;;;;;;;0.95;0.70;;;17.50;47.90;19.60;94068.00;;;;10395936;28;45752;-62
2022/05/15 05:56:25;;;;;;;1.80;0.90;;;17.50;47.90;19.60;94075.00;;;;10395974;28;45153;-61
2022/05/15 06:01:45;;;;;;;1.35;0.63;;;17.50;47.90;19.60;94078.00;;;;10395919;28;45118;-62
2022/05/15 06:07:06;;;;;;;2.10;0.82;;;17.50;47.90;19.60;94071.00;;;;10395138;28;45772;-62
2022/05/15 06:12:28;;;;;;;1.27;0.90;;;17.60;48.00;19.60;94087.00;;;;10395772;28;45326;-62
2022/05/15 06:17:49;;;;;;;0.82;0.70;;;17.60;48.00;19.60;94067.00;;;;10394762;28;45312;-62
2022/05/15 06:23:09;;;;;;;1.27;0.80;;;17.60;48.00;19.60;94079.00;;;;10395547;28;45162;-62
2022/05/15 06:28:34;;;;;;;2.03;0.80;;;17.60;48.00;19.60;94075.00;;;;10394671;28;45100;-62
2022/05/15 06:33:55;;;;;;;0.68;0.52;;;17.60;48.00;19.60;94086.00;;;;10394285;28;45149;-61
2022/05/15 06:39:15;;;;;;;2.35;0.90;;;17.60;48.10;19.60;94088.00;;;;10394276;28;45161;-62
2022/05/15 06:44:37;;;;;;;0.88;0.70;;;17.60;48.00;19.60;94081.00;;;;10394974;28;45879;-62
2022/05/15 06:49:58;;;;;;;0.90;0.70;;;17.60;48.10;19.60;94085.00;;;;10393862;28;45753;-62
2022/05/15 06:55:21;;;;;;;1.98;0.73;;;17.60;48.00;19.60;94077.00;;;;10353863;28;45259;-62
2022/05/15 07:00:44;;;;;;;1.42;0.80;;;17.60;48.10;19.60;94092.00;;;;10357702;28;45230;-61
2022/05/15 07:06:06;;;;;;;0.73;0.70;;;17.60;48.00;19.60;94088.00;;;;10385147;28;45251;-63
2022/05/15 07:11:27;;;;;;;0.98;0.70;;;17.50;48.00;19.60;94084.00;;;;10393983;28;45208;-63
2022/05/15 07:16:48;;;;;;;1.00;0.75;;;17.60;48.20;19.60;94082.00;;;;10393032;28;45309;-61
2022/05/15 07:22:11;;;;;;;0.95;0.80;;;17.60;48.10;19.60;94078.00;;;;10375466;28;45259;-62
2022/05/15 07:27:32;;;;;;;1.23;0.70;;;17.60;48.10;19.60;94069.00;;;;10380416;28;45872;-61
2022/05/15 07:32:54;;;;;;;1.33;0.73;;;17.60;48.10;19.60;94069.00;;;;10394174;28;45169;-61
2022/05/15 07:38:15;;;;;;;0.95;0.60;;;17.60;48.20;19.60;94077.00;;;;10392645;28;46123;-62
2022/05/15 07:43:35;;;;;;;1.05;0.75;;;17.50;48.20;19.60;94054.00;;;;10396974;28;45183;-62
2022/05/15 07:48:58;;;;;;;0.77;0.73;;;17.50;48.30;19.60;94058.00;;;;10359189;28;45244;-61
2022/05/15 07:54:20;;;;;;;1.10;0.70;;;17.50;48.30;19.50;94068.00;;;;10374909;28;45786;-62
2022/05/15 07:59:40;;;;;;;1.02;0.60;;;17.50;48.30;19.50;94049.00;;;;10393336;28;45782;-62
2022/05/15 08:10:48;;;;;;;1.52;0.90;;;17.50;48.40;19.50;94062.00;;;;10397105;28;45239;-62
2022/05/15 08:16:09;;;;;;;2.55;1.00;;;17.50;48.40;19.50;94053.00;;;;10362884;28;45237;-62
2022/05/15 08:27:10;;;;;;;1.23;0.82;;;17.50;48.50;19.50;94044.00;;;;10358585;28;45304;-62
2022/05/15 08:32:31;;;;;;;1.05;0.85;;;17.50;48.50;19.50;94042.00;;;;10377344;28;45133;-62
2022/05/15 08:37:53;;;;;;;1.45;0.85;;;17.40;48.40;19.50;94053.00;;;;10396937;28;45302;-62
2022/05/15 08:43:13;;;;;;;1.17;0.75;;;17.40;48.40;19.50;94067.00;;;;10398549;28;45178;-62
2022/05/15 08:48:38;;;;;;;1.13;0.70;;;17.40;48.50;19.50;94064.00;;;;10397502;28;45154;-62
2022/05/15 08:54:03;;;;;;;0.95;0.70;;;17.40;48.50;19.40;94057.00;;;;10393301;28;45245;-62
2022/05/15 08:59:28;;;;;;;1.33;0.73;;;17.40;48.50;19.40;94062.00;;;;10377370;28;45682;-61
2022/05/15 09:04:49;;;;;;;1.95;0.90;;;17.40;48.50;19.40;94066.00;;;;10375828;28;45268;-62
2022/05/15 09:10:24;;;;;;;1.00;0.70;;;17.40;48.60;19.40;94064.00;;;;10368398;28;46195;-62
2022/05/15 09:16:02;;;;;;;1.05;0.60;;;17.40;48.60;19.40;94053.00;;;;10361548;28;45212;-64
2022/05/15 09:21:22;;;;;;;;;;;17.30;48.60;19.40;94063.00;;;;10380880;28;45398;-62
2022/05/15 09:26:47;;;;;;;1.02;0.70;;;17.40;48.60;19.40;94057.00;;;;10378966;28;45213;-63
2022/05/15 09:32:27;;;;;;;1.55;0.60;;;17.30;48.60;19.40;94060.00;;;;10396292;28;45204;-63
2022/05/15 09:43:37;;;;;;;1.37;0.70;;;17.30;48.60;19.40;94055.00;;;;10396155;28;45228;-61
2022/05/15 09:49:05;;;;;;;1.80;0.70;;;17.30;49.30;19.40;94057.00;;;;10354541;28;45725;-62
2022/05/15 09:54:32;;;;;;;1.63;0.70;;;17.30;48.60;19.40;94045.00;;;;10381547;28;45268;-62
2022/05/15 10:00:05;;;;;;;0.57;0.50;;;17.30;48.60;19.40;94053.00;;;;10395148;28;45199;-62
2022/05/15 10:05:29;;;;;;;1.27;0.70;;;17.30;48.60;19.40;94039.00;;;;10394750;28;45983;-62
2022/05/15 10:10:59;;;;;;;0.80;0.70;;;17.30;48.70;19.40;94044.00;;;;10395162;28;45247;-62
2022/05/15 10:16:25;;;;;;;1.23;0.70;;;17.30;48.70;19.40;94033.00;;;;10395278;28;45157;-62
2022/05/15 10:21:51;;;;;;;1.40;0.80;;;17.30;48.80;19.40;94037.00;;;;10395416;28;45181;-62
2022/05/15 10:27:20;;;;;;;1.80;0.77;;;17.30;48.80;19.30;94027.00;;;;10394718;28;45196;-63
2022/05/15 10:32:46;;;;;;;1.00;0.65;;;17.30;48.80;19.30;94044.00;;;;10394938;28;45219;-62
2022/05/15 10:38:18;;;;;;;1.23;0.80;;;17.30;48.80;19.40;94040.00;;;;10394156;28;45297;-62
2022/05/15 10:44:02;;;;;;;1.15;0.70;;;17.30;48.80;19.40;94028.00;;;;10394491;28;45764;-62
2022/05/15 10:49:44;;;;;;;1.73;0.90;;;17.30;48.90;19.30;94027.00;;;;10393695;28;45150;-63
2022/05/15 11:01:06;;;;;;;1.23;0.80;;;17.30;49.00;19.30;94020.00;;;;10394000;28;45211;-61
2022/05/15 11:06:57;;;;;;;1.48;0.80;;;17.30;49.00;19.40;94019.00;;;;10393032;28;45221;-62
2022/05/15 11:12:27;;;;;;;1.45;0.90;;;17.30;49.10;19.30;94013.00;;;;10393685;28;45208;-62
2022/05/15 11:18:01;;;;;;;1.40;0.82;;;17.30;49.10;19.30;94010.00;;;;10393100;28;45249;-62
2022/05/15 11:23:29;;;;;;;1.40;0.90;;;17.30;49.10;19.30;94005.00;;;;10393643;28;45136;-62
2022/05/15 11:28:54;;;;;;;1.00;0.77;;;17.30;49.10;19.30;94013.00;;;;10393279;28;45306;-62
2022/05/15 11:34:15;;;;;;;1.42;0.80;;;17.30;49.10;19.40;93990.00;;;;10393228;28;45896;-62
2022/05/15 11:39:58;;;;;;;1.83;0.82;;;17.30;49.10;19.40;93988.00;;;;10371470;28;45721;-61
2022/05/15 11:45:38;;;;;;;1.75;1.00;;;17.30;49.10;19.40;93985.00;;;;10374802;28;45323;-63
2022/05/15 11:51:04;;;;;;;1.75;1.00;;;17.30;49.10;19.40;93991.00;;;;10351691;28;45236;-62
2022/05/15 11:56:35;;;;;;;2.13;1.02;;;17.30;49.10;19.40;93983.00;;;;10373511;28;45893;-62
2022/05/15 12:02:02;;;;;;;1.55;0.93;;;17.30;49.00;19.30;93972.00;;;;10369483;28;45153;-62
2022/05/15 12:07:49;;;;;;;1.90;1.00;;;17.30;49.00;19.40;93978.00;;;;10355471;28;45237;-61
2022/05/15 12:13:13;;;;;;;1.50;1.00;;;17.30;49.00;19.40;93974.00;;;;10351296;28;45669;-62
2022/05/15 12:18:38;;;;;;;1.10;1.00;;;17.40;49.00;19.40;93961.00;;;;10351204;28;46054;-63
2022/05/15 12:30:10;;;;;;;1.42;1.02;;;17.40;49.00;19.40;93950.00;;;;10352361;28;45205;-63
2022/05/15 12:35:36;;;;;;;1.73;1.00;;;17.40;49.00;19.40;93947.00;;;;10357350;28;45187;-62
2022/05/15 12:41:01;;;;;;;1.65;1.00;;;17.40;49.00;19.50;93928.00;;;;10357609;28;45285;-61
2022/05/15 12:46:33;;;;;;;1.90;1.10;;;17.40;49.00;19.50;93939.00;;;;10379904;28;45165;-62
2022/05/15 12:51:53;;;;;;;1.50;1.10;;;17.40;49.00;19.50;93941.00;;;;10397906;28;45442;-62
2022/05/15 12:57:16;;;;;;;1.50;1.10;;;17.40;49.00;19.50;93926.00;;;;10397257;28;45840;-61
2022/05/15 13:02:39;;;;;;;1.45;1.10;;;17.50;49.00;19.50;93926.00;;;;10398101;28;45988;-62
2022/05/15 13:08:01;;;;;;;2.20;0.90;;;17.50;49.00;19.50;93935.00;;;;10396944;28;45778;-62
2022/05/15 13:13:25;;;;;;;1.25;0.95;;;17.50;49.00;19.50;93927.00;;;;10398207;28;45385;-61
2022/05/15 13:18:51;;;;;;;1.90;1.00;;;17.50;49.00;19.60;93922.00;;;;10396811;28;45105;-63
2022/05/15 13:24:12;;;;;;;1.45;0.90;;;17.50;48.90;19.60;93920.00;;;;10397307;28;45236;-62
2022/05/15 13:29:37;;;;;;;1.40;1.02;;;17.50;48.90;19.60;93927.00;;;;10396319;28;45181;-61
2022/05/15 13:34:59;;;;;;;1.42;0.93;;;17.60;48.90;19.60;93906.00;;;;10396471;28;45514;-63
2022/05/15 13:46:08;;;;;;;1.35;0.85;;;17.60;48.90;19.60;93900.00;;;;10395254;28;45141;-62
2022/05/15 13:51:36;;;;;;;1.00;0.88;;;17.60;48.80;19.60;93897.00;;;;10396246;28;45188;-62
2022/05/15 13:57:08;;;;;;;1.58;1.20;;;17.60;48.80;19.60;93897.00;;;;10395448;28;45196;-62
2022/05/15 14:02:31;;;;;;;1.40;1.13;;;17.60;48.90;19.60;93874.00;;;;10395859;28;45192;-61
2022/05/15 14:07:53;;;;;;;2.05;1.10;;;17.60;48.90;19.70;93886.00;;;;10395149;28;45215;-62
2022/05/15 14:13:15;;;;;;;1.13;0.90;;;17.60;48.80;19.70;93876.00;;;;10393735;28;45230;-61
2022/05/15 14:18:37;;;;;;;1.30;1.10;;;17.70;48.80;19.70;93859.00;;;;10394820;28;45232;-61
2022/05/15 14:23:58;;;;;;;1.30;1.08;;;17.70;48.80;19.70;93867.00;;;;10395587;28;45437;-61
2022/05/15 14:29:20;;;;;;;1.20;0.98;;;17.70;48.80;19.70;93870.00;;;;10394621;28;45193;-62
2022/05/15 14:34:40;;;;;;;1.60;1.00;;;17.70;48.80;19.80;93871.00;;;;10392842;28;45316;-63
2022/05/15 14:40:02;;;;;;;1.05;0.90;;;17.70;48.70;19.80;93865.00;;;;10394139;28;45147;-62
2022/05/15 14:45:23;;;;;;;1.75;0.90;;;17.80;48.70;19.80;93867.00;;;;10392379;28;45247;-62
2022/05/15 14:50:45;;;;;;;1.90;1.00;;;17.80;48.70;19.80;93866.00;;;;10393631;28;45158;-62
2022/05/15 14:56:08;;;;;;;2.63;0.90;;;17.80;48.70;19.80;93865.00;;;;10391844;28;45813;-61
2022/05/15 15:01:31;;;;;;;1.75;1.00;;;17.80;48.60;19.80;93840.00;;;;10393989;28;45218;-62
2022/05/15 15:06:51;;;;;;;1.70;1.10;;;17.80;48.70;19.90;93856.00;;;;10393214;28;45180;-63
2022/05/15 15:12:13;;;;;;;1.63;0.90;;;17.80;48.60;19.90;93847.00;;;;10393654;28;45270;-61
2022/05/15 15:17:34;;;;;;;1.35;1.00;;;17.80;48.60;19.90;93843.00;;;;10393335;28;45232;-61
2022/05/15 15:22:55;;;;;;;1.70;1.13;;;17.90;48.50;19.90;93838.00;;;;10394205;28;45157;-63
2022/05/15 15:28:17;;;;;;;1.20;0.90;;;17.90;48.60;19.90;93831.00;;;;10393166;28;46127;-62
2022/05/15 15:33:38;;;;;;;1.10;1.00;;;17.90;48.50;20.00;93820.00;;;;10392959;28;45232;-62
2022/05/15 15:38:59;;;;;;;1.55;0.90;;;17.90;48.40;20.00;93823.00;;;;10393010;28;45789;-61
2022/05/15 15:44:23;;;;;;;3.03;1.02;;;18.00;48.40;20.00;93815.00;;;;10393151;28;45172;-64
2022/05/15 15:49:43;;;;;;;1.02;0.93;;;18.00;48.40;20.00;93806.00;;;;10392710;28;45773;-61
2022/05/15 15:55:05;;;;;;;1.23;0.85;;;18.00;48.40;20.00;93809.00;;;;10386981;28;45208;-62
2022/05/15 16:00:27;;;;;;;1.55;1.20;;;18.00;48.30;20.10;93806.00;;;;10392086;28;45208;-62
2022/05/15 16:05:48;;;;;;;1.35;1.00;;;18.00;48.20;20.10;93795.00;;;;10395453;28;45792;-62
2022/05/15 16:11:09;;;;;;;1.15;0.80;;;18.00;48.30;20.10;93799.00;;;;10388057;28;45154;-63
2022/05/15 16:16:31;;;;;;;1.40;1.00;;;18.10;48.30;20.10;93792.00;;;;10358554;28;45138;-63
2022/05/15 16:21:58;;;;;;;1.73;1.17;;;18.10;48.20;20.10;93792.00;;;;10358213;28;45177;-64
2022/05/15 16:27:19;;;;;;;1.48;0.80;;;18.10;48.20;20.10;93768.00;;;;10357860;28;45172;-64
2022/05/15 16:32:45;;;;;;;0.95;0.70;;;18.10;48.20;20.10;93777.00;;;;10358406;28;45285;-63
2022/05/15 16:38:06;;;;;;;1.60;0.87;;;18.10;48.30;20.10;93772.00;;;;10357814;28;45248;-63
2022/05/15 16:43:27;;;;;;;1.33;0.90;;;18.10;48.20;20.10;93778.00;;;;10358362;28;45287;-64
2022/05/15 16:48:49;;;;;;;1.30;0.70;;;18.10;48.20;20.20;93772.00;;;;10363616;28;45501;-63
2022/05/15 16:54:09;;;;;;;0.90;0.80;;;18.10;48.10;20.10;93771.00;;;;10379801;28;45242;-63
2022/05/15 16:59:29;;;;;;;1.42;0.88;;;18.10;48.30;20.10;93783.00;;;;10386059;28;45195;-63
2022/05/15 17:04:51;;;;;;;1.58;1.00;;;18.10;48.40;20.10;93776.00;;;;10398156;28;45180;-62
2022/05/15 17:10:17;;;;;;;2.22;0.90;;;18.00;48.30;20.10;93786.00;;;;10396281;28;46086;-63
2022/05/15 17:15:39;;;;;;;1.00;0.80;;;18.00;48.30;20.10;93777.00;;;;10397065;28;45163;-63
2022/05/15 17:21:01;;;;;;;1.40;0.93;;;18.00;48.10;20.10;93778.00;;;;10361347;28;45220;-62
2022/05/15 17:26:24;;;;;;;1.27;0.90;;;18.10;48.10;20.10;93791.00;;;;10379757;28;45811;-63
2022/05/15 17:37:26;;;;;;;1.42;0.80;;;18.10;48.20;20.10;93786.00;;;;10396567;28;45154;-63
2022/05/15 17:42:47;;;;;;;1.67;0.93;;;18.00;48.20;20.00;93797.00;;;;10396906;28;45134;-62
2022/05/15 17:48:10;;;;;;;1.25;1.00;;;18.00;48.40;20.00;93791.00;;;;10395822;28;45761;-63
2022/05/15 17:53:32;;;;;;;1.17;0.90;;;18.00;48.40;20.00;93789.00;;;;10395900;28;45162;-63
2022/05/15 17:58:52;;;;;;;0.90;0.70;;;18.00;48.40;20.00;93781.00;;;;10395965;28;45283;-62
2022/05/15 18:04:13;;;;;;;0.77;0.75;;;18.00;48.40;20.00;93797.00;;;;10396180;28;45768;-63
2022/05/15 18:09:37;;;;;;;0.75;0.75;;;17.90;48.50;19.90;93781.00;;;;10395368;28;45421;-63
2022/05/15 18:14:57;;;;;;;0.95;0.65;;;17.90;48.60;19.90;93783.00;;;;10395520;28;45158;-63
2022/05/15 18:20:18;;;;;;;0.80;0.70;;;17.90;48.50;19.90;93804.00;;;;10395309;28;45207;-62
2022/05/15 18:25:40;;;;;;;0.70;0.70;;;17.80;48.60;19.90;93814.00;;;;10394853;28;45221;-63
2022/05/15 18:31:04;;;;;;;1.40;0.65;;;17.90;48.60;19.90;93813.00;;;;10394872;28;45125;-63
2022/05/15 18:36:24;;;;;;;1.17;0.90;;;17.80;48.70;19.90;93815.00;;;;10394232;28;45169;-63
2022/05/15 18:41:51;;;;;;;1.25;1.00;;;17.80;48.70;19.80;93833.00;;;;10395287;28;45871;-63
2022/05/15 18:47:12;;;;;;;1.33;0.93;;;17.80;48.80;19.80;93834.00;;;;10394525;28;45174;-62
2022/05/15 18:58:18;;;;;;;1.08;0.70;;;17.70;48.90;19.80;93849.00;;;;10393638;28;45740;-62
2022/05/15 19:03:38;;;;;;;0.80;0.70;;;17.70;48.80;19.80;93847.00;;;;10394579;28;45188;-62
2022/05/15 19:08:59;;;;;;;1.27;0.80;;;17.70;49.00;19.80;93859.00;;;;10393235;28;45273;-62
2022/05/15 19:14:21;;;;;;;0.73;0.68;;;17.70;48.90;19.80;93846.00;;;;10394248;28;45645;-63
2022/05/15 19:19:42;;;;;;;0.85;0.73;;;17.70;49.00;19.70;93863.00;;;;10393847;28;45212;-64
2022/05/15 19:25:02;;;;;;;0.98;0.70;;;17.70;49.00;19.70;93875.00;;;;10393658;28;45871;-63
2022/05/15 19:30:24;;;;;;;0.82;0.70;;;17.70;49.10;19.70;93876.00;;;;10393152;28;45306;-63
2022/05/15 19:35:45;;;;;;;1.15;0.85;;;17.70;49.20;19.70;93867.00;;;;10393179;28;45157;-63
2022/05/15 19:41:06;;;;;;;1.20;0.90;;;17.60;49.10;19.70;93867.00;;;;10399122;28;45868;-63
2022/05/15 19:46:29;;;;;;;1.05;0.73;;;17.60;49.20;19.70;93879.00;;;;10399880;28;45823;-63
2022/05/15 19:51:49;;;;;;;1.10;0.90;;;17.60;49.20;19.70;93901.00;;;;10400380;28;45303;-64
2022/05/15 19:57:11;;;;;;;1.00;0.80;;;17.60;49.30;19.70;93916.00;;;;10400033;28;45149;-62
2022/05/15 20:02:33;;;;;;;1.35;0.80;;;17.60;49.30;19.70;93919.00;;;;10399612;28;45146;-62
2022/05/15 20:13:34;;;;;;;0.98;0.80;;;17.60;49.30;19.60;93911.00;;;;10395876;28;45241;-63
2022/05/15 20:18:56;;;;;;;2.20;0.80;;;17.60;49.40;19.60;93913.00;;;;10396446;28;45268;-63
2022/05/15 20:24:17;;;;;;;0.88;0.80;;;17.60;49.40;19.60;93927.00;;;;10399820;28;45165;-61
2022/05/15 20:29:38;;;;;;;2.05;0.80;;;17.60;49.50;19.60;93936.00;;;;10399055;28;45165;-61
2022/05/15 20:35:00;;;;;;;0.98;0.70;;;17.60;49.60;19.60;93954.00;;;;10399311;28;45129;-62
2022/05/15 20:40:21;;;;;;;1.40;0.80;;;17.50;49.40;19.60;93986.00;;;;10398617;28;45105;-62
2022/05/15 20:45:41;;;;;;;1.17;0.82;;;17.50;49.50;19.60;94026.00;;;;10398932;28;45226;-61
2022/05/15 20:51:04;;;;;;;1.40;0.95;;;17.50;49.60;19.60;94036.00;;;;10398070;28;45134;-61
2022/05/15 20:56:24;;;;;;;1.52;0.80;;;17.50;49.50;19.60;94042.00;;;;10397964;28;45204;-61
2022/05/15 21:01:46;;;;;;;1.08;0.80;;;17.50;49.50;19.60;94037.00;;;;10398241;28;45150;-62
2022/05/15 21:07:08;;;;;;;1.20;0.80;;;17.50;49.50;19.60;94034.00;;;;10397186;28;45670;-61
2022/05/15 21:12:29;;;;;;;1.35;0.80;;;17.50;49.60;19.60;94022.00;;;;10397899;28;45764;-62
2022/05/15 21:17:49;;;;;;;1.20;0.77;;;17.50;49.60;19.50;94020.00;;;;10397462;28;45303;-62
2022/05/15 21:23:11;;;;;;;1.27;0.70;;;17.50;49.60;19.50;94031.00;;;;10397754;28;45776;-61
2022/05/15 21:28:32;;;;;;;1.45;1.00;;;17.50;49.70;19.50;94033.00;;;;10397021;28;45176;-61
2022/05/15 21:33:53;;;;;;;1.10;0.80;;;17.50;49.80;19.50;94046.00;;;;10397158;28;45309;-62
2022/05/15 21:44:54;;;;;;;1.60;1.00;;;17.50;49.70;19.50;94064.00;;;;10396948;28;45716;-61
2022/05/15 21:50:14;;;;;;;0.90;0.70;;;17.40;49.70;19.50;94048.00;;;;10396533;28;45225;-61
2022/05/15 21:55:36;;;;;;;1.30;0.77;;;17.40;49.70;19.50;94041.00;;;;10395861;28;45190;-62
2022/05/15 22:00:59;;;;;;;0.70;0.70;;;17.50;49.80;19.50;94033.00;;;;10411941;22;45153;-61
2022/05/15 22:06:20;;;;;;;1.17;0.80;;;17.50;49.90;19.50;94030.00;;;;10396137;28;45121;-61
2022/05/15 22:11:42;;;;;;;1.10;0.90;;;17.40;49.80;19.50;94025.00;;;;10358587;28;45177;-61
2022/05/15 22:17:03;;;;;;;1.23;0.77;;;17.40;50.00;19.50;94047.00;;;;10355923;28;45896;-60
2022/05/15 22:22:25;;;;;;;1.15;0.90;;;17.40;50.10;19.50;94043.00;;;;10355397;28;45273;-62
2022/05/15 22:27:47;;;;;;;1.50;0.90;;;17.40;50.50;19.50;94007.00;;;;10354192;28;45293;-61
2022/05/15 22:33:08;;;;;;;1.50;0.90;;;17.40;50.50;19.40;94035.00;;;;10355879;28;45756;-61
2022/05/15 22:38:28;;;;;;;2.05;0.82;;;17.40;50.60;19.50;94047.00;;;;10354348;28;45219;-60
2022/05/15 22:43:50;;;;;;;1.60;1.00;;;17.40;50.70;19.50;94029.00;;;;10354426;28;45218;-60
2022/05/15 22:49:11;;;;;;;1.80;0.85;;;17.40;50.80;19.50;94042.00;;;;10353774;28;45802;-60
2022/05/15 22:54:32;;;;;;;1.67;0.85;;;17.40;50.90;19.50;94048.00;;;;10354577;28;45165;-61
2022/05/15 22:59:54;;;;;;;1.15;0.93;;;17.40;50.80;19.40;94025.00;;;;10353417;28;45526;-61
2022/05/15 23:10:53;;;;;;;1.42;0.85;;;17.40;51.10;19.40;94006.00;;;;10354003;28;45203;-61
2022/05/15 23:16:16;;;;;;;2.00;0.90;;;17.40;51.00;19.40;94008.00;;;;10353192;28;45236;-61
2022/05/15 23:21:37;;;;;;;1.30;0.80;;;17.40;51.20;19.40;93969.00;;;;10354500;28;45824;-61
2022/05/15 23:26:57;;;;;;;1.63;0.98;;;17.40;51.40;19.40;93989.00;;;;10353608;28;45170;-61
2022/05/15 23:32:19;;;;;;;1.10;0.88;;;17.40;51.30;19.40;93985.00;;;;10353744;28;45701;-60
2022/05/15 23:37:40;;;;;;;2.35;1.13;;;17.40;51.50;19.40;93981.00;;;;10352751;28;45214;-61
2022/05/15 23:43:00;;;;;;;0.82;0.80;;;17.30;51.30;19.40;93960.00;;;;10352940;28;45176;-60
2022/05/15 23:48:22;;;;;;;1.15;0.70;;;17.40;51.50;19.40;93964.00;;;;10352348;28;45100;-61
2022/05/15 23:53:43;;;;;;;1.00;0.60;;;17.30;51.50;19.40;93945.00;;;;10352991;28;45148;-60
2022/05/15 23:59:03;;;;;;;0.65;0.65;;;17.30;51.50;19.40;93943.00;;;;10351872;28;45184;-61
